Time;durP1;ratioP1;P1;durP2;ratioP2;P2;SDS_P1;SDS_P2;PMS_P1;PMS_P2;Temp;Humidity;BMP_temperature;BMP_pressure;BME280_temperature;BME280_humidity;BME280_pressure;Samples;Min_cycle;Max_cycle;Signal;HPM_P1;HPM_P2
2023/12/28 00:01:25;;;;;;;;;;;;;;;;;;5114926;28;20388;-77
2023/12/28 00:03:55;;;;;;;;;;;;;;;;;;5123516;27;19924;-80
2023/12/28 00:06:27;;;;;;;;;;;;;;;;;;5102792;27;20383;-79
2023/12/28 00:08:54;;;;;;;;;;;;;;;;;;5118388;27;19923;-80
2023/12/28 00:11:25;;;;;;;;;;;;;;;;;;5091107;28;19924;-81
2023/12/28 00:13:52;;;;;;;;;;;;;;;;;;5096215;28;19923;-80
2023/12/28 00:16:19;;;;;;;;;;;;;;;;;;5078795;28;19924;-81
2023/12/28 00:18:48;;;;;;;;;;;;;;;;;;5079109;28;19955;-79
2023/12/28 00:21:17;;;;;;;;;;;;;;;;;;5092184;27;20305;-80
2023/12/28 00:23:44;;;;;;;;;;;;;;;;;;5099499;28;19923;-80
2023/12/28 00:26:10;;;;;;;;;;;;;;;;;;5115262;28;19938;-80
2023/12/28 00:28:37;;;;;;;;;;;;;;;;;;5081314;28;19928;-81
2023/12/28 00:31:03;;;;;;;;;;;;;;;;;;5082438;28;19986;-80
2023/12/28 00:33:30;;;;;;;;;;;;;;;;;;5117735;28;20288;-80
2023/12/28 00:35:57;;;;;;;;;;;;;;;;;;5101110;28;20406;-79
2023/12/28 00:38:23;;;;;;;;;;;;;;;;;;5096560;28;20019;-79
2023/12/28 00:40:52;;;;;;;;;;;;;;;;;;5079660;28;19924;-79
2023/12/28 00:43:20;;;;;;;;;;;;;;;;;;5105529;28;19929;-77
2023/12/28 00:45:47;;;;;;;;;;;;;;;;;;5108868;28;19928;-79
2023/12/28 00:48:13;;;;;;;;;;;;;;;;;;5091049;28;19924;-80
2023/12/28 00:50:40;;;;;;;;;;;;;;;;;;5095686;28;19924;-80
2023/12/28 00:53:06;;;;;;;;;;;;;;;;;;5079126;28;19955;-80
2023/12/28 00:55:33;;;;;;;;;;;;;;;;;;5085136;28;20303;-77
2023/12/28 00:58:05;;;;;;;;;;;;;;;;;;5095298;28;20287;-78
2023/12/28 01:00:34;;;;;;;;;;;;;;;;;;5100915;28;19924;-77
2023/12/28 01:03:02;;;;;;;;;;;;;;;;;;5098945;28;19959;-80
2023/12/28 01:05:30;;;;;;;;;;;;;;;;;;5090499;28;20001;-80
2023/12/28 01:07:57;;;;;;;;;;;;;;;;;;5116175;28;20414;-81
2023/12/28 01:10:26;;;;;;;;;;;;;;;;;;5098589;28;19972;-79
2023/12/28 01:12:56;;;;;;;;;;;;;;;;;;5095348;28;20273;-79
2023/12/28 01:15:24;;;;;;;;;;;;;;;;;;5105256;28;20394;-80
2023/12/28 01:17:52;;;;;;;;;;;;;;;;;;5097599;28;19931;-81
2023/12/28 01:20:21;;;;;;;;;;;;;;;;;;5087102;28;20372;-78
2023/12/28 01:22:49;;;;;;;;;;;;;;;;;;5102587;28;19931;-79
2023/12/28 01:25:16;;;;;;;;;;;;;;;;;;5099916;28;19927;-79
2023/12/28 01:27:43;;;;;;;;;;;;;;;;;;5107270;28;19958;-79
2023/12/28 01:30:12;;;;;;;;;;;;;;;;;;5082118;28;19930;-80
2023/12/28 01:32:46;;;;;;;;;;;;;;;;;;5093348;27;19923;-80
2023/12/28 01:35:13;;;;;;;;;;;;;;;;;;5110963;27;19923;-78
2023/12/28 01:37:39;;;;;;;;;;;;;;;;;;5103796;27;19928;-79
2023/12/28 01:40:06;;;;;;;;;;;;;;;;;;5112022;27;20396;-79
2023/12/28 01:42:35;;;;;;;;;;;;;;;;;;5124491;27;20383;-79
2023/12/28 01:45:01;;;;;;;;;;;;;;;;;;5110022;27;19963;-79
2023/12/28 01:47:28;;;;;;;;;;;;;;;;;;5100203;28;20368;-78
2023/12/28 01:49:56;;;;;;;;;;;;;;;;;;5120637;27;19935;-79
2023/12/28 01:52:22;;;;;;;;;;;;;;;;;;5120061;27;20402;-79
2023/12/28 01:54:49;;;;;;;;;;;;;;;;;;5105070;28;19924;-77
2023/12/28 01:57:17;;;;;;;;;;;;;;;;;;5119169;27;19928;-82
2023/12/28 01:59:44;;;;;;;;;;;;;;;;;;5089537;28;20347;-80
2023/12/28 02:02:13;;;;;;;;;;;;;;;;;;5098795;28;19970;-78
2023/12/28 02:04:40;;;;;;;;;;;;;;;;;;5132536;27;20414;-78
2023/12/28 02:07:22;;;;;;;;;;;;;;;;;;5116490;27;19923;-78
2023/12/28 02:09:51;;;;;;;;;;;;;;;;;;5105850;28;19959;-79
2023/12/28 02:12:18;;;;;;;;;;;;;;;;;;5106333;27;20025;-77
2023/12/28 02:14:46;;;;;;;;;;;;;;;;;;5081679;28;19977;-80
2023/12/28 02:17:15;;;;;;;;;;;;;;;;;;5080411;27;20011;-80
2023/12/28 02:19:44;;;;;;;;;;;;;;;;;;5096931;27;20017;-79
2023/12/28 02:22:10;;;;;;;;;;;;;;;;;;5102254;28;19930;-77
2023/12/28 02:24:38;;;;;;;;;;;;;;;;;;5099395;28;19977;-78
2023/12/28 02:27:05;;;;;;;;;;;;;;;;;;5094166;27;19923;-80
2023/12/28 02:29:32;;;;;;;;;;;;;;;;;;5125683;27;19931;-79
2023/12/28 02:32:00;;;;;;;;;;;;;;;;;;5101654;27;19931;-78
2023/12/28 02:34:29;;;;;;;;;;;;;;;;;;5101490;28;20019;-77
2023/12/28 02:36:55;;;;;;;;;;;;;;;;;;5098109;28;19978;-77
2023/12/28 02:39:22;;;;;;;;;;;;;;;;;;5102309;27;19924;-80
2023/12/28 02:41:50;;;;;;;;;;;;;;;;;;5126530;27;20027;-79
2023/12/28 02:44:19;;;;;;;;;;;;;;;;;;5102466;28;20416;-80
2023/12/28 02:46:49;;;;;;;;;;;;;;;;;;5109391;28;19951;-79
2023/12/28 02:49:16;;;;;;;;;;;;;;;;;;5101610;27;19923;-78
2023/12/28 02:51:43;;;;;;;;;;;;;;;;;;5102017;27;20381;-78
2023/12/28 02:54:10;;;;;;;;;;;;;;;;;;5119937;27;19924;-79
2023/12/28 02:56:37;;;;;;;;;;;;;;;;;;5102368;28;19924;-79
2023/12/28 02:59:05;;;;;;;;;;;;;;;;;;5097459;28;19924;-78
2023/12/28 03:01:32;;;;;;;;;;;;;;;;;;5098584;28;19934;-78
2023/12/28 03:03:58;;;;;;;;;;;;;;;;;;5096203;28;19999;-79
2023/12/28 03:06:25;;;;;;;;;;;;;;;;;;5099017;28;20018;-80
2023/12/28 03:08:51;;;;;;;;;;;;;;;;;;5119777;27;20364;-79
2023/12/28 03:11:20;;;;;;;;;;;;;;;;;;5103380;28;19969;-80
2023/12/28 03:13:50;;;;;;;;;;;;;;;;;;5098805;28;19935;-78
2023/12/28 03:16:27;;;;;;;;;;;;;;;;;;5098330;28;19973;-79
2023/12/28 03:18:54;;;;;;;;;;;;;;;;;;5114918;27;20015;-79
2023/12/28 03:21:52;;;;;;;;;;;;;;;;;;5101334;28;19931;-80
2023/12/28 03:24:19;;;;;;;;;;;;;;;;;;5094053;28;19931;-80
2023/12/28 03:26:46;;;;;;;;;;;;;;;;;;5097316;28;19923;-80
2023/12/28 03:29:13;;;;;;;;;;;;;;;;;;5121250;27;19951;-80
2023/12/28 03:31:40;;;;;;;;;;;;;;;;;;5105498;28;20010;-78
2023/12/28 03:34:07;;;;;;;;;;;;;;;;;;5122990;27;19923;-78
2023/12/28 03:36:34;;;;;;;;;;;;;;;;;;5086427;27;20311;-79
2023/12/28 03:39:01;;;;;;;;;;;;;;;;;;5117935;27;19931;-79
2023/12/28 03:41:30;;;;;;;;;;;;;;;;;;5101325;28;19928;-79
2023/12/28 03:43:56;;;;;;;;;;;;;;;;;;5084063;28;20410;-80
2023/12/28 03:46:23;;;;;;;;;;;;;;;;;;5121712;27;19923;-78
2023/12/28 03:48:50;;;;;;;;;;;;;;;;;;5120763;27;19923;-79
2023/12/28 03:51:26;;;;;;;;;;;;;;;;;;5098307;28;19923;-79
2023/12/28 03:53:53;;;;;;;;;;;;;;;;;;5096058;28;20400;-81
2023/12/28 03:56:19;;;;;;;;;;;;;;;;;;5096405;28;19973;-80
2023/12/28 03:58:46;;;;;;;;;;;;;;;;;;5121162;27;19928;-78
2023/12/28 04:01:12;;;;;;;;;;;;;;;;;;5079921;28;20388;-80
2023/12/28 04:03:39;;;;;;;;;;;;;;;;;;5098405;27;19970;-79
2023/12/28 04:06:06;;;;;;;;;;;;;;;;;;5087816;27;19927;-78
2023/12/28 04:08:32;;;;;;;;;;;;;;;;;;5102452;28;20303;-78
2023/12/28 04:10:59;;;;;;;;;;;;;;;;;;5102237;28;19984;-81
2023/12/28 04:13:33;;;;;;;;;;;;;;;;;;5086261;27;19924;-80
2023/12/28 04:16:00;;;;;;;;;;;;;;;;;;5100218;28;20489;-80
2023/12/28 04:18:28;;;;;;;;;;;;;;;;;;5098754;28;19970;-80
2023/12/28 04:20:57;;;;;;;;;;;;;;;;;;5095887;28;20010;-81
2023/12/28 04:23:24;;;;;;;;;;;;;;;;;;5081053;27;20388;-80
2023/12/28 04:25:50;;;;;;;;;;;;;;;;;;5097760;28;19974;-79
2023/12/28 04:28:17;;;;;;;;;;;;;;;;;;5099226;28;20337;-79
2023/12/28 04:30:44;;;;;;;;;;;;;;;;;;5100901;28;20365;-79
2023/12/28 04:33:13;;;;;;;;;;;;;;;;;;5079599;28;19947;-80
2023/12/28 04:35:40;;;;;;;;;;;;;;;;;;5092820;28;20391;-80
2023/12/28 04:38:06;;;;;;;;;;;;;;;;;;5080066;28;19963;-79
2023/12/28 04:40:35;;;;;;;;;;;;;;;;;;5085849;28;19935;-80
2023/12/28 04:43:04;;;;;;;;;;;;;;;;;;5097956;28;20006;-79
2023/12/28 04:45:35;;;;;;;;;;;;;;;;;;5096481;28;19924;-79
2023/12/28 04:48:01;;;;;;;;;;;;;;;;;;5101070;28;19923;-81
2023/12/28 04:50:28;;;;;;;;;;;;;;;;;;5095268;28;20101;-81
2023/12/28 04:52:55;;;;;;;;;;;;;;;;;;5088644;28;19928;-77
2023/12/28 04:55:24;;;;;;;;;;;;;;;;;;5091450;28;19931;-80
2023/12/28 04:57:50;;;;;;;;;;;;;;;;;;5099606;28;19924;-79
2023/12/28 05:00:20;;;;;;;;;;;;;;;;;;5075257;28;19959;-80
2023/12/28 05:02:51;;;;;;;;;;;;;;;;;;5082682;28;19931;-80
2023/12/28 05:05:17;;;;;;;;;;;;;;;;;;5090119;28;20317;-78
2023/12/28 05:07:44;;;;;;;;;;;;;;;;;;5109614;27;19930;-80
2023/12/28 05:10:18;;;;;;;;;;;;;;;;;;5085461;28;19924;-78
2023/12/28 05:12:44;;;;;;;;;;;;;;;;;;5099315;28;19970;-78
2023/12/28 05:15:13;;;;;;;;;;;;;;;;;;5079556;28;19924;-78
2023/12/28 05:17:39;;;;;;;;;;;;;;;;;;5097990;27;19927;-79
2023/12/28 05:20:08;;;;;;;;;;;;;;;;;;5108610;27;20352;-78
2023/12/28 05:22:35;;;;;;;;;;;;;;;;;;5121598;27;20273;-78
2023/12/28 05:25:03;;;;;;;;;;;;;;;;;;5112289;27;20402;-77
2023/12/28 05:27:29;;;;;;;;;;;;;;;;;;5099446;28;19928;-77
2023/12/28 05:29:56;;;;;;;;;;;;;;;;;;5103854;27;20329;-80
2023/12/28 05:32:27;;;;;;;;;;;;;;;;;;5099310;27;19938;-79
2023/12/28 05:34:56;;;;;;;;;;;;;;;;;;5098886;28;19924;-79
2023/12/28 05:37:24;;;;;;;;;;;;;;;;;;5104979;27;19923;-79
2023/12/28 05:39:55;;;;;;;;;;;;;;;;;;5120112;27;19959;-79
2023/12/28 05:42:22;;;;;;;;;;;;;;;;;;5119005;27;19931;-80
2023/12/28 05:44:52;;;;;;;;;;;;;;;;;;5100795;28;20364;-79
2023/12/28 05:47:20;;;;;;;;;;;;;;;;;;5082102;28;19971;-77
2023/12/28 05:49:46;;;;;;;;;;;;;;;;;;5120968;27;19927;-79
2023/12/28 05:52:18;;;;;;;;;;;;;;;;;;5099798;28;19983;-81
2023/12/28 05:54:45;;;;;;;;;;;;;;;;;;5131760;27;19973;-79
2023/12/28 05:57:14;;;;;;;;;;;;;;;;;;5102455;28;19923;-78
2023/12/28 05:59:40;;;;;;;;;;;;;;;;;;5097614;28;19924;-80
2023/12/28 06:02:07;;;;;;;;;;;;;;;;;;5108046;28;19946;-78
2023/12/28 06:04:37;;;;;;;;;;;;;;;;;;5090045;28;19931;-79
2023/12/28 06:07:11;;;;;;;;;;;;;;;;;;5083710;27;19923;-80
2023/12/28 06:09:38;;;;;;;;;;;;;;;;;;5103752;28;20380;-79
2023/12/28 06:12:05;;;;;;;;;;;;;;;;;;5093627;27;20039;-79
2023/12/28 06:14:33;;;;;;;;;;;;;;;;;;5101667;28;19924;-79
2023/12/28 06:16:59;;;;;;;;;;;;;;;;;;5084211;27;20382;-80
2023/12/28 06:19:26;;;;;;;;;;;;;;;;;;5127078;27;19923;-78
2023/12/28 06:21:54;;;;;;;;;;;;;;;;;;5104877;28;19927;-81
2023/12/28 06:24:20;;;;;;;;;;;;;;;;;;5103322;28;19934;-78
2023/12/28 06:26:50;;;;;;;;;;;;;;;;;;5118071;27;19969;-76
2023/12/28 06:29:17;;;;;;;;;;;;;;;;;;5099107;28;19924;-78
2023/12/28 06:31:44;;;;;;;;;;;;;;;;;;5109274;27;19927;-79
2023/12/28 06:34:11;;;;;;;;;;;;;;;;;;5127192;27;19928;-79
2023/12/28 06:36:43;;;;;;;;;;;;;;;;;;5086198;28;19924;-79
2023/12/28 06:39:10;;;;;;;;;;;;;;;;;;5121574;27;19927;-78
2023/12/28 06:41:36;;;;;;;;;;;;;;;;;;5122419;27;19948;-78
2023/12/28 06:44:06;;;;;;;;;;;;;;;;;;5121470;27;19924;-79
2023/12/28 06:46:32;;;;;;;;;;;;;;;;;;5085139;28;19923;-79
2023/12/28 06:49:02;;;;;;;;;;;;;;;;;;5120798;28;19936;-79
2023/12/28 06:51:30;;;;;;;;;;;;;;;;;;5127025;27;19928;-80
2023/12/28 06:54:00;;;;;;;;;;;;;;;;;;5131449;27;20717;-77
2023/12/28 06:56:26;;;;;;;;;;;;;;;;;;5131107;27;19953;-80
2023/12/28 06:58:53;;;;;;;;;;;;;;;;;;5131260;27;19958;-79
2023/12/28 07:01:20;;;;;;;;;;;;;;;;;;5133648;27;19935;-79
2023/12/28 07:03:50;;;;;;;;;;;;;;;;;;5124437;27;19924;-79
2023/12/28 07:06:17;;;;;;;;;;;;;;;;;;5107006;28;19924;-77
2023/12/28 07:08:45;;;;;;;;;;;;;;;;;;5124524;28;19931;-78
2023/12/28 07:11:11;;;;;;;;;;;;;;;;;;5126376;28;19930;-78
2023/12/28 07:13:38;;;;;;;;;;;;;;;;;;5136943;27;19930;-79
2023/12/28 07:16:08;;;;;;;;;;;;;;;;;;5100361;28;19924;-78
2023/12/28 07:18:35;;;;;;;;;;;;;;;;;;5114862;28;19924;-79
2023/12/28 07:21:03;;;;;;;;;;;;;;;;;;5097241;28;19924;-79
2023/12/28 07:23:30;;;;;;;;;;;;;;;;;;5115304;28;19928;-78
2023/12/28 07:25:58;;;;;;;;;;;;;;;;;;5096948;28;19931;-76
2023/12/28 07:28:26;;;;;;;;;;;;;;;;;;5123196;27;20197;-77
2023/12/28 07:30:53;;;;;;;;;;;;;;;;;;5119647;27;20463;-78
2023/12/28 07:33:19;;;;;;;;;;;;;;;;;;5110900;28;19928;-77
2023/12/28 07:35:46;;;;;;;;;;;;;;;;;;5122943;27;19938;-76
2023/12/28 07:38:12;;;;;;;;;;;;;;;;;;5116228;27;19923;-79
2023/12/28 07:40:39;;;;;;;;;;;;;;;;;;5121077;27;19980;-80
2023/12/28 07:43:05;;;;;;;;;;;;;;;;;;5096404;28;20296;-80
2023/12/28 07:45:32;;;;;;;;;;;;;;;;;;5099435;27;20320;-77
2023/12/28 07:47:59;;;;;;;;;;;;;;;;;;5117509;27;20285;-79
2023/12/28 07:50:26;;;;;;;;;;;;;;;;;;5099191;28;19924;-79
2023/12/28 07:52:52;;;;;;;;;;;;;;;;;;5105206;28;20050;-77
2023/12/28 07:55:19;;;;;;;;;;;;;;;;;;5114922;28;20385;-77
2023/12/28 07:57:48;;;;;;;;;;;;;;;;;;5114289;28;19928;-77
2023/12/28 08:00:15;;;;;;;;;;;;;;;;;;5095858;28;19923;-80
2023/12/28 08:02:45;;;;;;;;;;;;;;;;;;5100588;28;19924;-77
2023/12/28 08:05:12;;;;;;;;;;;;;;;;;;5103970;28;20292;-77
2023/12/28 08:07:41;;;;;;;;;;;;;;;;;;5115028;28;19995;-77
2023/12/28 08:10:09;;;;;;;;;;;;;;;;;;5123606;27;19924;-79
2023/12/28 08:12:35;;;;;;;;;;;;;;;;;;5123486;27;19924;-77
2023/12/28 08:15:02;;;;;;;;;;;;;;;;;;5123985;27;19931;-76
2023/12/28 08:17:28;;;;;;;;;;;;;;;;;;5114142;28;19931;-77
2023/12/28 08:19:58;;;;;;;;;;;;;;;;;;5117254;27;19970;-80
2023/12/28 08:22:24;;;;;;;;;;;;;;;;;;5091301;28;19930;-77
2023/12/28 08:24:51;;;;;;;;;;;;;;;;;;5098548;28;19934;-78
2023/12/28 08:27:18;;;;;;;;;;;;;;;;;;5100993;28;20320;-78
2023/12/28 08:29:50;;;;;;;;;;;;;;;;;;5098221;28;19924;-78
2023/12/28 08:32:17;;;;;;;;;;;;;;;;;;5115084;28;19924;-78
2023/12/28 08:34:43;;;;;;;;;;;;;;;;;;5100684;28;19930;-78
2023/12/28 08:37:10;;;;;;;;;;;;;;;;;;5113256;28;20356;-78
2023/12/28 08:39:38;;;;;;;;;;;;;;;;;;5121261;28;20406;-78
2023/12/28 08:42:05;;;;;;;;;;;;;;;;;;5110110;27;19927;-78
2023/12/28 08:44:32;;;;;;;;;;;;;;;;;;5127860;27;20011;-79
2023/12/28 08:47:00;;;;;;;;;;;;;;;;;;5100666;28;19927;-76
2023/12/28 08:49:26;;;;;;;;;;;;;;;;;;5118474;28;20296;-76
2023/12/28 08:51:54;;;;;;;;;;;;;;;;;;5118310;28;19932;-78
2023/12/28 08:54:20;;;;;;;;;;;;;;;;;;5118393;28;20334;-79
2023/12/28 08:56:48;;;;;;;;;;;;;;;;;;5132960;27;19970;-78
2023/12/28 08:59:19;;;;;;;;;;;;;;;;;;5119220;27;19924;-76
2023/12/28 09:01:45;;;;;;;;;;;;;;;;;;5125453;27;20382;-78
2023/12/28 09:04:14;;;;;;;;;;;;;;;;;;5100905;28;20022;-80
2023/12/28 09:06:41;;;;;;;;;;;;;;;;;;5117841;28;20015;-78
2023/12/28 09:09:07;;;;;;;;;;;;;;;;;;5100482;27;19931;-78
2023/12/28 09:11:35;;;;;;;;;;;;;;;;;;5121099;27;20054;-77
2023/12/28 09:14:02;;;;;;;;;;;;;;;;;;5101822;28;19963;-78
2023/12/28 09:16:28;;;;;;;;;;;;;;;;;;5101433;28;20003;-76
2023/12/28 09:18:55;;;;;;;;;;;;;;;;;;5120346;27;19930;-78
2023/12/28 09:21:22;;;;;;;;;;;;;;;;;;5123470;27;19927;-78
2023/12/28 09:23:48;;;;;;;;;;;;;;;;;;5099031;28;20391;-77
2023/12/28 09:26:15;;;;;;;;;;;;;;;;;;5104067;28;20015;-78
2023/12/28 09:28:42;;;;;;;;;;;;;;;;;;5128169;27;19923;-78
2023/12/28 09:31:12;;;;;;;;;;;;;;;;;;5126449;27;19927;-79
2023/12/28 09:33:39;;;;;;;;;;;;;;;;;;5081849;28;19924;-77
2023/12/28 09:36:06;;;;;;;;;;;;;;;;;;5103987;27;19923;-78
2023/12/28 09:38:32;;;;;;;;;;;;;;;;;;5119215;27;20022;-77
2023/12/28 09:41:00;;;;;;;;;;;;;;;;;;5131671;27;19931;-77
2023/12/28 09:43:26;;;;;;;;;;;;;;;;;;5119591;27;20009;-77
2023/12/28 09:45:53;;;;;;;;;;;;;;;;;;5105270;28;19930;-79
2023/12/28 09:48:21;;;;;;;;;;;;;;;;;;5114616;27;19928;-79
2023/12/28 09:50:48;;;;;;;;;;;;;;;;;;5102244;27;20051;-78
2023/12/28 09:53:17;;;;;;;;;;;;;;;;;;5118491;27;19924;-78
2023/12/28 09:55:51;;;;;;;;;;;;;;;;;;5116245;28;19997;-77
2023/12/28 09:58:21;;;;;;;;;;;;;;;;;;5089388;27;19930;-79
2023/12/28 10:00:48;;;;;;;;;;;;;;;;;;5125924;27;19924;-80
2023/12/28 10:03:15;;;;;;;;;;;;;;;;;;5116180;28;19924;-76
2023/12/28 10:05:42;;;;;;;;;;;;;;;;;;5081021;28;19933;-78
2023/12/28 10:08:09;;;;;;;;;;;;;;;;;;5120360;27;20020;-79
2023/12/28 10:10:36;;;;;;;;;;;;;;;;;;5116328;27;19931;-79
2023/12/28 10:13:02;;;;;;;;;;;;;;;;;;5116231;28;20385;-78
2023/12/28 10:15:29;;;;;;;;;;;;;;;;;;5116278;28;19990;-78
2023/12/28 10:17:56;;;;;;;;;;;;;;;;;;5098075;28;20003;-76
2023/12/28 10:20:22;;;;;;;;;;;;;;;;;;5109644;27;19923;-78
2023/12/28 10:22:51;;;;;;;;;;;;;;;;;;5107280;27;20022;-79
2023/12/28 10:25:18;;;;;;;;;;;;;;;;;;5112497;27;20014;-78
2023/12/28 10:27:46;;;;;;;;;;;;;;;;;;5126310;27;20415;-79
2023/12/28 10:30:12;;;;;;;;;;;;;;;;;;5115622;28;20335;-78
2023/12/28 10:32:41;;;;;;;;;;;;;;;;;;5122910;27;20388;-78
2023/12/28 10:35:08;;;;;;;;;;;;;;;;;;5119691;27;19931;-78
2023/12/28 10:37:34;;;;;;;;;;;;;;;;;;5098563;28;20307;-79
2023/12/28 10:40:01;;;;;;;;;;;;;;;;;;5097588;28;19989;-80
2023/12/28 10:42:28;;;;;;;;;;;;;;;;;;5111785;27;19972;-79
2023/12/28 10:44:54;;;;;;;;;;;;;;;;;;5103234;27;19952;-78
2023/12/28 10:47:21;;;;;;;;;;;;;;;;;;5121490;27;19967;-79
2023/12/28 10:49:53;;;;;;;;;;;;;;;;;;5102830;27;19931;-76
2023/12/28 10:52:23;;;;;;;;;;;;;;;;;;5103516;27;19927;-77
2023/12/28 10:54:49;;;;;;;;;;;;;;;;;;5104445;27;19978;-79
2023/12/28 10:57:17;;;;;;;;;;;;;;;;;;5123389;27;19923;-76
2023/12/28 10:59:52;;;;;;;;;;;;;;;;;;5096178;28;19928;-77
2023/12/28 11:02:21;;;;;;;;;;;;;;;;;;5101566;28;20241;-76
2023/12/28 11:04:48;;;;;;;;;;;;;;;;;;5116535;27;19924;-80
2023/12/28 11:07:14;;;;;;;;;;;;;;;;;;5120366;27;19923;-78
2023/12/28 11:09:41;;;;;;;;;;;;;;;;;;5098921;28;19931;-80
2023/12/28 11:12:14;;;;;;;;;;;;;;;;;;5103987;28;19947;-79
2023/12/28 11:14:41;;;;;;;;;;;;;;;;;;5118508;27;19928;-77
2023/12/28 11:17:08;;;;;;;;;;;;;;;;;;5117488;27;20384;-79
2023/12/28 11:19:35;;;;;;;;;;;;;;;;;;5116279;27;19928;-80
2023/12/28 11:22:02;;;;;;;;;;;;;;;;;;5081389;27;20411;-79
2023/12/28 11:24:29;;;;;;;;;;;;;;;;;;5100369;28;19927;-80
2023/12/28 11:26:55;;;;;;;;;;;;;;;;;;5096734;28;19928;-75
2023/12/28 11:29:22;;;;;;;;;;;;;;;;;;5105387;27;20334;-80
2023/12/28 11:31:48;;;;;;;;;;;;;;;;;;5118980;27;19928;-81
2023/12/28 11:34:17;;;;;;;;;;;;;;;;;;5101404;27;19973;-82
2023/12/28 11:36:44;;;;;;;;;;;;;;;;;;5080526;28;19923;-80
2023/12/28 11:39:11;;;;;;;;;;;;;;;;;;5102944;27;19928;-80
2023/12/28 11:41:45;;;;;;;;;;;;;;;;;;5097534;28;20384;-80
2023/12/28 11:44:15;;;;;;;;;;;;;;;;;;5103542;28;19976;-78
2023/12/28 11:46:44;;;;;;;;;;;;;;;;;;5105243;27;20350;-76
2023/12/28 11:49:11;;;;;;;;;;;;;;;;;;5099924;27;19928;-76
2023/12/28 11:51:37;;;;;;;;;;;;;;;;;;5097567;28;20428;-78
2023/12/28 11:54:04;;;;;;;;;;;;;;;;;;5087369;28;20022;-75
2023/12/28 11:56:30;;;;;;;;;;;;;;;;;;5080502;27;19927;-76
2023/12/28 11:58:58;;;;;;;;;;;;;;;;;;5098246;28;19930;-76
2023/12/28 12:01:24;;;;;;;;;;;;;;;;;;5097460;28;20020;-77
2023/12/28 12:03:51;;;;;;;;;;;;;;;;;;5114962;27;19928;-76
2023/12/28 12:06:17;;;;;;;;;;;;;;;;;;5097666;27;19927;-75
2023/12/28 12:08:44;;;;;;;;;;;;;;;;;;5096310;27;19931;-74
2023/12/28 12:11:11;;;;;;;;;;;;;;;;;;5105079;27;19930;-77
2023/12/28 12:13:38;;;;;;;;;;;;;;;;;;5080915;28;20041;-76
2023/12/28 12:16:05;;;;;;;;;;;;;;;;;;5117201;27;19928;-75
2023/12/28 12:18:33;;;;;;;;;;;;;;;;;;5099650;28;19928;-77
2023/12/28 12:21:00;;;;;;;;;;;;;;;;;;5085188;28;19931;-77
2023/12/28 12:23:26;;;;;;;;;;;;;;;;;;5097581;28;19930;-78
2023/12/28 12:25:54;;;;;;;;;;;;;;;;;;5098811;28;19935;-81
2023/12/28 12:28:20;;;;;;;;;;;;;;;;;;5119791;27;20484;-83
2023/12/28 12:30:47;;;;;;;;;;;;;;;;;;5120542;28;19927;-81
2023/12/28 12:33:13;;;;;;;;;;;;;;;;;;5099508;28;20050;-81
2023/12/28 12:35:39;;;;;;;;;;;;;;;;;;5101193;28;20018;-81
2023/12/28 12:38:06;;;;;;;;;;;;;;;;;;5080068;28;20407;-80
2023/12/28 12:40:33;;;;;;;;;;;;;;;;;;5105538;28;20364;-80
2023/12/28 12:43:00;;;;;;;;;;;;;;;;;;5119651;28;19957;-81
2023/12/28 12:45:26;;;;;;;;;;;;;;;;;;5097472;28;19927;-79
2023/12/28 12:47:53;;;;;;;;;;;;;;;;;;5100329;28;19924;-81
2023/12/28 12:50:19;;;;;;;;;;;;;;;;;;5116939;28;19955;-81
2023/12/28 12:52:46;;;;;;;;;;;;;;;;;;5099585;28;19954;-80
2023/12/28 12:55:12;;;;;;;;;;;;;;;;;;5114978;28;20283;-80
2023/12/28 12:57:39;;;;;;;;;;;;;;;;;;5081354;28;19950;-80
2023/12/28 13:00:08;;;;;;;;;;;;;;;;;;5103436;28;19923;-81
2023/12/28 13:02:38;;;;;;;;;;;;;;;;;;5116186;28;19927;-80
2023/12/28 13:05:05;;;;;;;;;;;;;;;;;;5095769;28;19928;-79
2023/12/28 13:07:32;;;;;;;;;;;;;;;;;;5101512;28;20295;-80
2023/12/28 13:09:58;;;;;;;;;;;;;;;;;;5080919;28;19924;-80
2023/12/28 13:12:25;;;;;;;;;;;;;;;;;;5119623;28;19930;-80
2023/12/28 13:14:51;;;;;;;;;;;;;;;;;;5098217;28;19935;-81
2023/12/28 13:17:18;;;;;;;;;;;;;;;;;;5119399;28;19924;-80
2023/12/28 13:19:44;;;;;;;;;;;;;;;;;;5120459;28;19931;-80
2023/12/28 13:22:11;;;;;;;;;;;;;;;;;;5101567;28;19924;-80
2023/12/28 13:24:37;;;;;;;;;;;;;;;;;;5098421;28;19934;-80
2023/12/28 13:27:04;;;;;;;;;;;;;;;;;;5120476;27;20376;-80
2023/12/28 13:29:30;;;;;;;;;;;;;;;;;;5125403;27;19962;-81
2023/12/28 13:31:57;;;;;;;;;;;;;;;;;;5103817;27;19930;-81
2023/12/28 13:34:24;;;;;;;;;;;;;;;;;;5104068;27;19924;-81
2023/12/28 13:36:50;;;;;;;;;;;;;;;;;;5084527;28;19924;-80
2023/12/28 13:39:17;;;;;;;;;;;;;;;;;;5100907;27;20018;-81
2023/12/28 13:41:44;;;;;;;;;;;;;;;;;;5087326;27;19936;-81
2023/12/28 13:44:12;;;;;;;;;;;;;;;;;;5118495;27;20051;-81
2023/12/28 13:46:39;;;;;;;;;;;;;;;;;;5113944;27;20284;-81
2023/12/28 13:49:07;;;;;;;;;;;;;;;;;;5097896;28;20384;-80
2023/12/28 13:51:33;;;;;;;;;;;;;;;;;;5103849;28;19931;-79
2023/12/28 13:54:00;;;;;;;;;;;;;;;;;;5100392;28;19935;-81
2023/12/28 13:56:29;;;;;;;;;;;;;;;;;;5102465;27;19947;-80
2023/12/28 13:58:55;;;;;;;;;;;;;;;;;;5087980;27;19927;-81
2023/12/28 14:01:22;;;;;;;;;;;;;;;;;;5101831;27;19928;-81
2023/12/28 14:03:51;;;;;;;;;;;;;;;;;;5098048;28;19984;-81
2023/12/28 14:06:18;;;;;;;;;;;;;;;;;;5098885;28;19935;-81
2023/12/28 14:08:45;;;;;;;;;;;;;;;;;;5102405;27;19985;-81
2023/12/28 14:11:11;;;;;;;;;;;;;;;;;;5085143;28;19987;-81
2023/12/28 14:13:38;;;;;;;;;;;;;;;;;;5105208;27;20563;-82
2023/12/28 14:16:04;;;;;;;;;;;;;;;;;;5101802;27;19924;-82
2023/12/28 14:18:31;;;;;;;;;;;;;;;;;;5104634;28;19939;-79
2023/12/28 14:20:58;;;;;;;;;;;;;;;;;;5104773;27;19931;-82
2023/12/28 14:23:24;;;;;;;;;;;;;;;;;;5115447;27;19928;-81
2023/12/28 14:25:53;;;;;;;;;;;;;;;;;;5124150;27;19924;-81
2023/12/28 14:28:19;;;;;;;;;;;;;;;;;;5085271;27;20026;-81
2023/12/28 14:30:46;;;;;;;;;;;;;;;;;;5102072;28;19931;-82
2023/12/28 14:33:12;;;;;;;;;;;;;;;;;;5106580;27;19924;-82
2023/12/28 14:35:39;;;;;;;;;;;;;;;;;;5085654;27;19938;-82
2023/12/28 14:38:08;;;;;;;;;;;;;;;;;;5098474;27;20018;-81
2023/12/28 14:40:34;;;;;;;;;;;;;;;;;;5102565;27;19923;-81
2023/12/28 14:43:00;;;;;;;;;;;;;;;;;;5116803;27;19962;-82
2023/12/28 14:45:27;;;;;;;;;;;;;;;;;;5087101;27;19927;-81
2023/12/28 14:47:54;;;;;;;;;;;;;;;;;;5098718;28;19924;-81
2023/12/28 14:50:20;;;;;;;;;;;;;;;;;;5121370;27;19923;-83
2023/12/28 14:52:47;;;;;;;;;;;;;;;;;;5119767;27;20026;-80
2023/12/28 14:55:13;;;;;;;;;;;;;;;;;;5121580;27;19983;-82
2023/12/28 14:57:40;;;;;;;;;;;;;;;;;;5119892;27;19993;-82
2023/12/28 15:00:06;;;;;;;;;;;;;;;;;;5099621;28;19947;-82
2023/12/28 15:02:33;;;;;;;;;;;;;;;;;;5101006;27;20384;-80
2023/12/28 15:05:00;;;;;;;;;;;;;;;;;;5121090;27;19927;-81
2023/12/28 15:07:27;;;;;;;;;;;;;;;;;;5101058;27;19927;-81
2023/12/28 15:09:55;;;;;;;;;;;;;;;;;;5083411;27;19923;-81
2023/12/28 15:12:22;;;;;;;;;;;;;;;;;;5103077;27;20012;-81
2023/12/28 15:14:48;;;;;;;;;;;;;;;;;;5105116;27;19963;-83
2023/12/28 15:17:15;;;;;;;;;;;;;;;;;;5102236;27;20394;-81
2023/12/28 15:19:41;;;;;;;;;;;;;;;;;;5091969;28;19924;-83
2023/12/28 15:22:08;;;;;;;;;;;;;;;;;;5100111;28;20014;-83
2023/12/28 15:24:34;;;;;;;;;;;;;;;;;;5103917;27;20024;-82
2023/12/28 15:27:02;;;;;;;;;;;;;;;;;;5102305;28;20360;-82
2023/12/28 15:29:28;;;;;;;;;;;;;;;;;;5121569;27;19951;-81
2023/12/28 15:31:54;;;;;;;;;;;;;;;;;;5096504;27;20395;-82
2023/12/28 15:34:21;;;;;;;;;;;;;;;;;;5096518;28;20010;-82
2023/12/28 15:36:47;;;;;;;;;;;;;;;;;;5103280;27;19931;-82
2023/12/28 15:39:14;;;;;;;;;;;;;;;;;;5118426;27;19923;-82
2023/12/28 15:41:41;;;;;;;;;;;;;;;;;;5098102;27;19927;-81
2023/12/28 15:44:07;;;;;;;;;;;;;;;;;;5097544;28;20627;-82
2023/12/28 15:46:34;;;;;;;;;;;;;;;;;;5100054;28;19927;-81
2023/12/28 15:49:01;;;;;;;;;;;;;;;;;;5100113;28;19924;-83
2023/12/28 15:51:27;;;;;;;;;;;;;;;;;;5097419;28;19924;-82
2023/12/28 15:53:53;;;;;;;;;;;;;;;;;;5078872;27;20422;-83
2023/12/28 15:56:20;;;;;;;;;;;;;;;;;;5080103;27;19966;-83
2023/12/28 15:58:46;;;;;;;;;;;;;;;;;;5098728;27;19924;-82
2023/12/28 16:01:13;;;;;;;;;;;;;;;;;;5083345;28;19924;-83
2023/12/28 16:03:40;;;;;;;;;;;;;;;;;;5096333;28;20010;-82
2023/12/28 16:06:06;;;;;;;;;;;;;;;;;;5115548;27;19932;-81
2023/12/28 16:08:33;;;;;;;;;;;;;;;;;;5101191;27;19934;-82
2023/12/28 16:11:01;;;;;;;;;;;;;;;;;;5100325;27;19963;-81
2023/12/28 16:13:28;;;;;;;;;;;;;;;;;;5099529;27;19930;-82
2023/12/28 16:15:54;;;;;;;;;;;;;;;;;;5100905;27;19954;-82
2023/12/28 16:18:21;;;;;;;;;;;;;;;;;;5101609;28;20333;-81
2023/12/28 16:20:47;;;;;;;;;;;;;;;;;;5099686;28;19923;-82
2023/12/28 16:23:14;;;;;;;;;;;;;;;;;;5096535;28;19993;-81
2023/12/28 16:25:40;;;;;;;;;;;;;;;;;;5117474;28;19930;-81
2023/12/28 16:28:07;;;;;;;;;;;;;;;;;;5117897;27;20399;-82
2023/12/28 16:30:36;;;;;;;;;;;;;;;;;;5080624;28;19928;-82
2023/12/28 16:33:03;;;;;;;;;;;;;;;;;;5095335;28;19927;-82
2023/12/28 16:35:29;;;;;;;;;;;;;;;;;;5080427;28;19949;-82
2023/12/28 16:37:56;;;;;;;;;;;;;;;;;;5098035;28;19924;-81
2023/12/28 16:40:23;;;;;;;;;;;;;;;;;;5120930;28;19923;-81
2023/12/28 16:42:50;;;;;;;;;;;;;;;;;;5095543;28;20314;-82
2023/12/28 16:45:16;;;;;;;;;;;;;;;;;;5118393;28;19935;-82
2023/12/28 16:47:44;;;;;;;;;;;;;;;;;;5088610;28;19927;-83